createdAt,value
2022-11-30T00:00:58.880Z,30.75
2022-11-30T00:03:25.667Z,29.08
2022-11-30T00:05:52.139Z,28.08
2022-11-30T00:08:18.350Z,31.23
2022-11-30T00:10:44.713Z,31.15
2022-11-30T00:13:10.921Z,28.35
2022-11-30T00:15:37.778Z,31.20
2022-11-30T00:18:04.071Z,30.85
2022-11-30T00:20:30.384Z,31.88
2022-11-30T00:22:57.243Z,31.17
2022-11-30T00:25:24.327Z,30.42
2022-11-30T00:27:50.535Z,31.08
2022-11-30T00:30:16.792Z,30.50
2022-11-30T00:32:43.047Z,31.25
2022-11-30T00:35:09.261Z,28.92
2022-11-30T00:37:35.520Z,30.02
2022-11-30T00:40:01.717Z,31.75
2022-11-30T00:42:27.894Z,33.00
2022-11-30T00:44:54.089Z,33.70
2022-11-30T00:47:20.291Z,33.78
2022-11-30T00:49:46.496Z,33.63
2022-11-30T00:52:12.699Z,32.92
2022-11-30T00:54:38.891Z,34.47
2022-11-30T00:57:05.179Z,35.13
2022-11-30T00:59:31.382Z,31.05
2022-11-30T01:01:57.631Z,32.65
2022-11-30T01:04:23.861Z,32.22
2022-11-30T01:06:50.071Z,33.17
2022-11-30T01:09:16.329Z,31.13
2022-11-30T01:11:42.544Z,32.90
2022-11-30T01:14:08.765Z,31.27
2022-11-30T01:16:34.965Z,29.02
2022-11-30T01:19:01.239Z,31.73
2022-11-30T01:21:28.510Z,32.13
2022-11-30T01:23:55.066Z,33.88
2022-11-30T01:26:21.463Z,32.47
2022-11-30T01:28:52.045Z,33.58
2022-11-30T01:31:18.590Z,35.87
2022-11-30T01:33:48.490Z,33.75
2022-11-30T01:36:19.580Z,33.85
2022-11-30T01:38:50.104Z,31.05
2022-11-30T01:41:21.767Z,32.92
2022-11-30T01:43:51.944Z,33.15
2022-11-30T01:46:21.982Z,33.40
2022-11-30T01:48:53.340Z,33.97
2022-11-30T01:51:19.573Z,35.30
2022-11-30T01:53:45.777Z,34.03
2022-11-30T01:56:12.009Z,35.33
2022-11-30T01:58:38.185Z,32.00
2022-11-30T02:01:05.020Z,33.17
2022-11-30T02:03:43.811Z,35.17
2022-11-30T02:06:10.058Z,34.22
2022-11-30T02:08:36.319Z,31.77
2022-11-30T02:11:03.961Z,32.67
2022-11-30T02:13:36.915Z,32.72
2022-11-30T02:16:14.731Z,33.92
2022-11-30T02:18:56.168Z,33.42
2022-11-30T02:21:31.861Z,31.98
2022-11-30T02:24:09.171Z,33.72
2022-11-30T02:26:41.829Z,31.85
2022-11-30T02:29:11.058Z,31.40
2022-11-30T02:31:43.204Z,32.28
2022-11-30T02:34:12.387Z,32.05
2022-11-30T02:36:38.665Z,31.48
2022-11-30T02:39:04.892Z,31.15
2022-11-30T02:41:38.427Z,31.67
2022-11-30T02:44:05.248Z,31.30
2022-11-30T02:46:34.540Z,29.17
2022-11-30T02:49:05.959Z,31.88
2022-11-30T02:51:33.807Z,30.65
2022-11-30T02:54:00.074Z,31.08
2022-11-30T02:56:26.404Z,30.13
2022-11-30T02:58:52.696Z,31.05
2022-11-30T03:01:18.922Z,31.88
2022-11-30T03:03:45.154Z,31.35
2022-11-30T03:06:11.365Z,29.23
2022-11-30T03:08:37.566Z,28.85
2022-11-30T03:11:04.051Z,29.70
2022-11-30T03:13:30.886Z,28.63
2022-11-30T03:15:57.162Z,28.00
2022-11-30T03:18:23.538Z,24.90
2022-11-30T03:20:49.851Z,26.67
2022-11-30T03:23:16.031Z,26.10
2022-11-30T03:25:42.214Z,26.42
2022-11-30T03:28:08.450Z,27.00
2022-11-30T03:30:34.701Z,26.13
2022-11-30T03:33:00.919Z,28.10
2022-11-30T03:35:27.124Z,27.20
2022-11-30T03:37:53.317Z,28.10
2022-11-30T03:40:19.793Z,30.02
2022-11-30T03:42:46.007Z,28.83
2022-11-30T03:45:12.222Z,26.13
2022-11-30T03:47:38.466Z,25.95
2022-11-30T03:50:04.939Z,28.83
2022-11-30T03:52:31.136Z,28.92
2022-11-30T03:54:57.335Z,29.55
2022-11-30T03:57:23.567Z,30.75
2022-11-30T03:59:49.790Z,29.77
2022-11-30T04:02:15.989Z,29.70
2022-11-30T04:04:42.229Z,30.85
2022-11-30T04:07:08.444Z,29.08
2022-11-30T04:09:34.625Z,32.28
2022-11-30T04:12:00.902Z,32.25
2022-11-30T04:14:27.164Z,30.95
2022-11-30T04:16:53.376Z,33.85
2022-11-30T04:19:19.551Z,32.22
2022-11-30T04:21:45.801Z,32.25
2022-11-30T04:24:11.988Z,34.20
2022-11-30T04:26:38.293Z,35.50
2022-11-30T04:29:05.161Z,35.92
2022-11-30T04:31:31.447Z,34.90
2022-11-30T04:33:57.679Z,34.03
2022-11-30T04:36:23.925Z,33.80
2022-11-30T04:38:50.142Z,34.60
2022-11-30T04:41:16.532Z,35.38
2022-11-30T04:43:42.757Z,33.75
2022-11-30T04:46:09.036Z,34.05
2022-11-30T04:48:35.231Z,32.95
2022-11-30T04:51:06.023Z,33.70
2022-11-30T04:53:33.156Z,34.45
2022-11-30T04:55:59.445Z,33.33
2022-11-30T04:58:25.701Z,31.98
2022-11-30T05:00:53.563Z,34.17
2022-11-30T05:03:19.847Z,32.85
2022-11-30T05:05:46.028Z,31.23
2022-11-30T05:08:12.232Z,31.67
2022-11-30T05:10:38.555Z,32.22
2022-11-30T05:13:04.929Z,31.83
2022-11-30T05:15:31.418Z,30.02
2022-11-30T05:18:01.111Z,32.08
2022-11-30T05:20:30.415Z,30.60
2022-11-30T05:22:57.430Z,30.83
2022-11-30T05:25:23.676Z,30.85
2022-11-30T05:27:49.924Z,32.13
2022-11-30T05:30:16.235Z,28.13
2022-11-30T05:32:42.490Z,28.95
2022-11-30T05:35:09.111Z,28.38
2022-11-30T05:37:35.304Z,30.38
2022-11-30T05:40:01.520Z,29.92
2022-11-30T05:42:28.143Z,33.38
2022-11-30T05:44:54.356Z,33.13
2022-11-30T05:47:20.580Z,34.47
2022-11-30T05:49:46.788Z,34.28
2022-11-30T05:52:12.995Z,35.45
2022-11-30T05:54:39.182Z,36.25
2022-11-30T05:57:05.380Z,34.85
2022-11-30T05:59:31.571Z,34.55
2022-11-30T06:01:57.877Z,35.95
2022-11-30T06:04:24.182Z,35.83
2022-11-30T06:06:52.159Z,36.10
2022-11-30T06:09:18.354Z,36.25
2022-11-30T06:11:44.542Z,35.78
2022-11-30T06:14:10.733Z,34.95
2022-11-30T06:16:38.211Z,34.53
2022-11-30T06:19:04.425Z,35.22
2022-11-30T06:21:30.611Z,34.65
2022-11-30T06:23:57.042Z,35.63
2022-11-30T06:26:23.461Z,34.38
2022-11-30T06:28:49.677Z,35.45
2022-11-30T06:31:16.167Z,33.58
2022-11-30T06:33:42.521Z,32.83
2022-11-30T06:36:09.079Z,31.67
2022-11-30T06:38:35.313Z,31.42
2022-11-30T06:41:05.888Z,32.03
2022-11-30T06:43:33.079Z,32.73
2022-11-30T06:45:59.416Z,31.75
2022-11-30T06:48:25.703Z,29.90
2022-11-30T06:50:51.906Z,29.40
2022-11-30T06:53:18.124Z,30.85
2022-11-30T06:55:44.314Z,29.88
2022-11-30T06:58:10.610Z,27.73
2022-11-30T07:00:37.056Z,29.13
2022-11-30T07:03:03.679Z,27.55
2022-11-30T07:05:30.142Z,28.73
2022-11-30T07:07:56.432Z,28.27
2022-11-30T07:10:22.873Z,28.08
2022-11-30T07:12:49.588Z,25.75
2022-11-30T07:15:15.951Z,25.08
2022-11-30T07:17:42.178Z,27.13
2022-11-30T07:20:08.622Z,26.65
2022-11-30T07:22:34.808Z,25.95
2022-11-30T07:25:19.820Z,26.20
2022-11-30T07:27:46.016Z,24.08
2022-11-30T07:30:12.389Z,24.38
2022-11-30T07:32:38.578Z,25.55
2022-11-30T07:35:04.917Z,26.02
2022-11-30T07:37:31.109Z,26.67
2022-11-30T07:39:57.354Z,24.70
2022-11-30T07:42:23.598Z,25.33
2022-11-30T07:44:55.248Z,25.73
2022-11-30T07:47:24.484Z,24.13
2022-11-30T07:49:50.679Z,22.20
2022-11-30T07:52:16.862Z,24.55
2022-11-30T07:54:43.041Z,24.10
2022-11-30T07:57:09.406Z,24.63
2022-11-30T07:59:35.642Z,24.08
2022-11-30T08:02:02.066Z,22.77
2022-11-30T08:04:28.422Z,23.15
2022-11-30T08:06:55.243Z,24.27
2022-11-30T08:09:21.461Z,22.45
2022-11-30T08:11:48.389Z,22.65
2022-11-30T08:14:14.627Z,24.50
2022-11-30T08:16:43.121Z,23.23
2022-11-30T08:19:09.360Z,25.75
2022-11-30T08:21:35.681Z,24.95
2022-11-30T08:24:02.046Z,24.13
2022-11-30T08:26:30.453Z,26.50
2022-11-30T08:28:57.361Z,26.77
2022-11-30T08:31:25.286Z,27.50
2022-11-30T08:33:54.924Z,27.15
2022-11-30T08:36:22.167Z,26.55
2022-11-30T08:38:48.735Z,26.30
2022-11-30T08:41:16.782Z,25.00
2022-11-30T08:43:43.005Z,25.70
2022-11-30T08:46:27.911Z,25.08
2022-11-30T08:52:15.318Z,26.17
2022-11-30T08:54:29.349Z,27.13
2022-11-30T08:56:55.691Z,26.85
2022-11-30T08:59:21.896Z,27.20
2022-11-30T09:01:48.112Z,27.92
2022-11-30T09:04:14.327Z,28.33
2022-11-30T09:06:41.817Z,27.33
2022-11-30T09:09:08.017Z,25.58
2022-11-30T09:11:34.193Z,27.13
2022-11-30T09:14:02.390Z,27.50
2022-11-30T09:16:28.604Z,26.92
2022-11-30T09:18:54.842Z,24.83
2022-11-30T09:21:22.038Z,25.65
2022-11-30T09:23:49.293Z,27.50
2022-11-30T09:26:17.744Z,25.02
2022-11-30T09:28:47.589Z,28.17
2022-11-30T09:31:15.254Z,27.02
2022-11-30T09:33:41.859Z,26.60
2022-11-30T09:36:09.136Z,27.58
2022-11-30T09:38:35.703Z,27.98
2022-11-30T09:41:05.689Z,28.60
2022-11-30T09:44:10.327Z,24.67
2022-11-30T09:46:39.741Z,26.00
2022-11-30T09:49:11.039Z,26.98
2022-11-30T09:51:56.747Z,26.48
2022-11-30T09:54:35.255Z,27.83
2022-11-30T09:57:25.138Z,26.23
2022-11-30T09:59:58.536Z,27.70
2022-11-30T10:02:32.261Z,29.08
2022-11-30T10:04:59.170Z,29.85
2022-11-30T10:07:34.572Z,27.25
2022-11-30T10:10:33.734Z,27.23
2022-11-30T10:13:09.039Z,27.33
2022-11-30T10:15:54.140Z,29.20
2022-11-30T10:18:39.202Z,29.48
2022-11-30T10:21:24.475Z,29.75
2022-11-30T10:24:09.248Z,30.23
2022-11-30T10:26:38.081Z,28.67
2022-11-30T10:29:16.211Z,29.55
2022-11-30T10:31:43.155Z,31.58
2022-11-30T10:34:21.018Z,30.88
2022-11-30T10:36:53.239Z,31.27
2022-11-30T10:39:21.816Z,30.17
2022-11-30T10:41:52.011Z,29.98
2022-11-30T10:44:23.241Z,31.80
2022-11-30T10:47:00.123Z,32.38
2022-11-30T10:49:28.054Z,31.83
2022-11-30T10:51:57.314Z,32.40
2022-11-30T10:54:23.718Z,33.20
2022-11-30T10:56:49.936Z,30.58
2022-11-30T10:59:19.167Z,33.55
2022-11-30T11:01:45.527Z,34.63
2022-11-30T11:04:19.260Z,32.95
2022-11-30T11:06:54.892Z,34.83
2022-11-30T11:09:32.760Z,36.30
2022-11-30T11:12:00.021Z,35.30
2022-11-30T11:14:27.989Z,35.22
2022-11-30T11:16:59.046Z,34.08
2022-11-30T11:19:30.929Z,35.58
2022-11-30T11:21:57.294Z,35.22
2022-11-30T11:24:26.446Z,36.65
2022-11-30T11:26:53.521Z,36.35
2022-11-30T11:29:31.223Z,37.88
2022-11-30T11:32:18.285Z,37.15
2022-11-30T11:34:49.508Z,37.67
2022-11-30T11:37:22.000Z,36.40
2022-11-30T11:39:59.077Z,35.90
2022-11-30T11:42:26.898Z,35.30
2022-11-30T11:44:55.219Z,35.25
2022-11-30T11:47:24.982Z,34.90
2022-11-30T11:49:52.711Z,36.40
2022-11-30T11:52:19.022Z,36.60
2022-11-30T11:54:53.647Z,36.90
2022-11-30T11:57:22.595Z,38.13
2022-11-30T11:59:57.018Z,39.78
2022-11-30T12:02:42.137Z,38.33
2022-11-30T12:05:12.773Z,35.03
2022-11-30T12:07:45.604Z,39.17
2022-11-30T12:10:49.855Z,40.95
2022-11-30T12:13:09.421Z,41.08
2022-11-30T12:15:49.285Z,41.13
2022-11-30T12:18:23.744Z,40.55
2022-11-30T12:20:54.126Z,40.10
2022-11-30T12:23:31.849Z,39.80
2022-11-30T12:26:16.910Z,41.05
2022-11-30T12:28:53.387Z,39.60
2022-11-30T12:31:19.803Z,39.10
2022-11-30T12:34:01.607Z,39.08
2022-11-30T12:36:33.953Z,42.15
2022-11-30T12:39:09.987Z,40.95
2022-11-30T12:41:36.325Z,41.85
2022-11-30T12:44:14.746Z,39.95
2022-11-30T12:46:43.828Z,40.17
2022-11-30T12:49:18.391Z,42.42
2022-11-30T12:51:50.393Z,40.22
2022-11-30T12:54:16.565Z,40.35
2022-11-30T12:56:54.773Z,42.45
2022-11-30T12:59:32.883Z,39.22
2022-11-30T13:01:59.250Z,42.00
2022-11-30T13:04:28.389Z,43.33
2022-11-30T13:07:02.671Z,44.75
2022-11-30T13:09:34.577Z,54.30
2022-11-30T13:12:11.871Z,41.25
2022-11-30T13:14:38.789Z,41.33
2022-11-30T13:17:06.140Z,39.58
2022-11-30T13:19:44.703Z,38.45
2022-11-30T13:22:33.932Z,41.05
2022-11-30T13:25:08.653Z,42.88
2022-11-30T13:27:44.673Z,40.33
2022-11-30T13:30:34.556Z,40.28
2022-11-30T13:33:20.717Z,37.63
2022-11-30T13:35:53.991Z,39.17
2022-11-30T13:38:38.105Z,38.65
2022-11-30T13:41:05.599Z,37.67
2022-11-30T13:43:36.470Z,38.65
2022-11-30T13:46:05.858Z,38.13
2022-11-30T13:48:39.412Z,38.33
2022-11-30T13:51:06.099Z,38.83
2022-11-30T13:53:38.498Z,40.85
2022-11-30T13:56:20.089Z,39.67
2022-11-30T14:01:21.324Z,37.83
2022-11-30T14:04:07.514Z,39.85
2022-11-30T14:06:39.662Z,36.65
2022-11-30T14:09:16.042Z,36.47
2022-11-30T14:11:43.239Z,38.70
2022-11-30T14:14:28.241Z,37.25
2022-11-30T14:16:54.626Z,37.33
2022-11-30T14:19:20.998Z,39.03
2022-11-30T14:21:47.189Z,38.25
2022-11-30T14:24:20.762Z,36.97
2022-11-30T14:26:49.156Z,36.33
2022-11-30T14:29:21.881Z,37.47
2022-11-30T14:31:48.163Z,36.30
2022-11-30T14:34:16.851Z,36.35
2022-11-30T14:36:51.274Z,34.70
2022-11-30T14:39:24.783Z,36.00
2022-11-30T14:41:51.151Z,36.15
2022-11-30T14:44:17.385Z,36.45
2022-11-30T14:46:43.679Z,34.47
2022-11-30T14:49:13.754Z,35.40
2022-11-30T14:51:41.311Z,35.63
2022-11-30T14:54:10.502Z,34.88
2022-11-30T14:56:39.316Z,35.20
2022-11-30T14:59:15.552Z,34.95
2022-11-30T15:01:42.040Z,34.92
2022-11-30T15:04:13.086Z,34.78
2022-11-30T15:06:39.808Z,32.95
2022-11-30T15:09:13.009Z,32.22
2022-11-30T15:11:43.320Z,33.53
2022-11-30T15:14:10.597Z,33.45
2022-11-30T15:16:37.389Z,32.10
2022-11-30T15:19:21.113Z,33.80
2022-11-30T15:21:47.478Z,34.10
2022-11-30T15:24:13.872Z,33.35
2022-11-30T15:26:58.778Z,32.60
2022-11-30T15:29:30.491Z,33.08
2022-11-30T15:31:58.050Z,32.70
2022-11-30T15:34:24.349Z,32.22
2022-11-30T15:36:53.664Z,31.08
2022-11-30T15:39:21.553Z,32.70
2022-11-30T15:41:53.095Z,33.38
2022-11-30T15:46:54.428Z,32.13
2022-11-30T15:49:25.097Z,31.42
2022-11-30T15:51:59.546Z,34.07
2022-11-30T15:54:44.743Z,32.28
2022-11-30T15:57:11.022Z,32.70
2022-11-30T15:59:37.240Z,31.98
2022-11-30T16:02:14.232Z,33.28
2022-11-30T16:04:59.420Z,31.63
2022-11-30T16:07:28.552Z,31.95
2022-11-30T16:10:12.889Z,30.15
2022-11-30T16:12:39.325Z,32.50
2022-11-30T16:15:19.305Z,33.42
2022-11-30T16:17:45.651Z,31.70
2022-11-30T16:20:13.664Z,29.63
2022-11-30T16:22:44.262Z,31.42
2022-11-30T16:25:14.536Z,30.57
2022-11-30T16:27:41.332Z,30.02
2022-11-30T16:30:08.280Z,31.27
2022-11-30T16:32:34.530Z,30.77
2022-11-30T16:35:01.907Z,28.65
2022-11-30T16:37:28.119Z,31.02
2022-11-30T16:39:54.335Z,30.33
2022-11-30T16:42:20.518Z,30.13
2022-11-30T16:44:46.719Z,28.13
2022-11-30T16:47:12.907Z,28.20
2022-11-30T16:49:39.108Z,28.73
2022-11-30T16:52:05.319Z,28.25
2022-11-30T16:54:31.539Z,28.65
2022-11-30T16:56:57.741Z,28.75
2022-11-30T16:59:23.954Z,28.48
2022-11-30T17:01:53.698Z,28.58
2022-11-30T17:04:22.766Z,28.85
2022-11-30T17:06:51.180Z,28.42
2022-11-30T17:09:18.984Z,28.90
2022-11-30T17:11:46.653Z,29.52
2022-11-30T17:14:14.126Z,26.45
2022-11-30T17:16:40.793Z,28.15
2022-11-30T17:19:07.644Z,27.73
2022-11-30T17:21:35.567Z,28.98
2022-11-30T17:24:02.060Z,28.75
2022-11-30T17:26:28.316Z,29.02
2022-11-30T17:28:54.756Z,28.60
2022-11-30T17:31:21.115Z,28.17
2022-11-30T17:33:48.496Z,26.98
2022-11-30T17:36:15.468Z,28.17
2022-11-30T17:38:43.896Z,27.75
2022-11-30T17:41:18.331Z,27.58
2022-11-30T17:43:45.394Z,27.60
2022-11-30T17:46:13.085Z,26.38
2022-11-30T17:48:39.332Z,28.30
2022-11-30T17:51:05.729Z,28.25
2022-11-30T17:53:31.994Z,27.73
2022-11-30T17:56:05.308Z,28.50
2022-11-30T17:58:35.352Z,28.58
2022-11-30T18:01:03.213Z,27.98
2022-11-30T18:03:30.006Z,28.70
2022-11-30T18:05:59.697Z,29.25
2022-11-30T18:08:25.975Z,27.88
2022-11-30T18:10:52.210Z,29.08
2022-11-30T18:13:18.405Z,27.65
2022-11-30T18:15:44.635Z,28.83
2022-11-30T18:18:10.818Z,29.85
2022-11-30T18:20:37.077Z,29.65
2022-11-30T18:23:03.383Z,30.77
2022-11-30T18:25:29.767Z,29.50
2022-11-30T18:27:55.989Z,29.17
2022-11-30T18:30:22.252Z,28.63
2022-11-30T18:32:48.536Z,29.80
2022-11-30T18:35:14.972Z,28.48
2022-11-30T18:37:41.223Z,31.60
2022-11-30T18:40:07.660Z,30.52
2022-11-30T18:42:34.373Z,30.17
2022-11-30T18:45:00.693Z,30.00
2022-11-30T18:47:26.927Z,30.45
2022-11-30T18:49:53.223Z,30.30
2022-11-30T18:52:19.518Z,101.65
2022-11-30T18:54:46.241Z,34.65
2022-11-30T18:57:12.661Z,31.67
2022-11-30T18:59:38.959Z,31.35
2022-11-30T19:02:05.727Z,31.40
2022-11-30T19:04:32.435Z,30.40
2022-11-30T19:06:58.825Z,29.90
2022-11-30T19:09:25.116Z,30.55
2022-11-30T19:11:51.426Z,30.08
2022-11-30T19:14:17.649Z,30.85
2022-11-30T19:16:43.985Z,31.33
2022-11-30T19:19:12.446Z,28.17
2022-11-30T19:21:38.669Z,28.90
2022-11-30T19:24:05.060Z,28.60
2022-11-30T19:26:31.289Z,29.00
2022-11-30T19:28:57.804Z,29.65
2022-11-30T19:31:24.855Z,27.42
2022-11-30T19:33:52.527Z,28.73
2022-11-30T19:36:20.061Z,27.50
2022-11-30T19:38:46.690Z,29.10
2022-11-30T19:41:13.934Z,27.27
2022-11-30T19:43:40.334Z,27.10
2022-11-30T19:46:07.236Z,27.30
2022-11-30T19:48:33.886Z,27.73
2022-11-30T19:51:03.517Z,25.77
2022-11-30T19:53:29.766Z,26.65
2022-11-30T19:55:56.036Z,24.52
2022-11-30T19:58:22.362Z,24.02
2022-11-30T20:00:49.574Z,23.17
2022-11-30T20:03:15.853Z,22.58
2022-11-30T20:05:47.535Z,22.98
2022-11-30T20:08:13.718Z,22.58
2022-11-30T20:10:40.264Z,22.05
2022-11-30T20:13:06.441Z,21.77
2022-11-30T20:15:32.694Z,22.02
2022-11-30T20:17:59.040Z,22.77
2022-11-30T20:20:25.353Z,21.77
2022-11-30T20:22:51.573Z,21.58
2022-11-30T20:25:17.770Z,21.67
2022-11-30T20:27:44.031Z,20.58
2022-11-30T20:30:10.398Z,21.05
2022-11-30T20:32:40.306Z,20.50
2022-11-30T20:35:06.902Z,20.55
2022-11-30T20:37:33.159Z,20.30
2022-11-30T20:39:59.626Z,19.98
2022-11-30T20:42:25.889Z,18.88
2022-11-30T20:44:52.094Z,18.88
2022-11-30T20:47:18.520Z,19.05
2022-11-30T20:49:44.743Z,18.15
2022-11-30T20:52:10.954Z,19.08
2022-11-30T20:54:37.373Z,17.98
2022-11-30T20:57:03.605Z,18.73
2022-11-30T20:59:30.050Z,18.83
2022-11-30T21:01:56.530Z,18.50
2022-11-30T21:04:23.486Z,18.80
2022-11-30T21:06:49.802Z,18.98
2022-11-30T21:09:17.420Z,18.02
2022-11-30T21:11:44.249Z,17.85
2022-11-30T21:14:10.964Z,17.52
2022-11-30T21:16:37.414Z,16.60
2022-11-30T21:19:04.060Z,17.27
2022-11-30T21:21:31.572Z,17.55
2022-11-30T21:23:59.805Z,17.45
2022-11-30T21:26:27.704Z,17.58
2022-11-30T21:28:56.366Z,16.58
2022-11-30T21:31:23.143Z,16.42
2022-11-30T21:33:53.147Z,17.00
2022-11-30T21:36:20.205Z,16.67
2022-11-30T21:38:46.485Z,16.38
2022-11-30T21:41:13.102Z,15.90
2022-11-30T21:43:39.691Z,16.13
2022-11-30T21:46:11.226Z,16.00
2022-11-30T21:51:07.891Z,15.43
2022-11-30T21:53:38.583Z,16.15
2022-11-30T21:56:12.583Z,16.67
2022-11-30T21:58:40.145Z,15.10
2022-11-30T22:01:07.256Z,15.73
2022-11-30T22:03:33.555Z,15.55
2022-11-30T22:06:07.453Z,15.07
2022-11-30T22:08:34.066Z,16.15
2022-11-30T22:11:01.495Z,16.25
2022-11-30T22:13:28.399Z,16.50
2022-11-30T22:15:59.734Z,15.63
2022-11-30T22:18:26.510Z,16.40
2022-11-30T22:20:52.748Z,15.15
2022-11-30T22:23:18.932Z,14.68
2022-11-30T22:25:45.125Z,15.57
2022-11-30T22:28:11.307Z,15.50
2022-11-30T22:30:37.589Z,14.55
2022-11-30T22:33:03.777Z,17.52
2022-11-30T22:35:29.977Z,16.38
2022-11-30T22:37:56.194Z,15.18
2022-11-30T22:40:22.454Z,15.80
2022-11-30T22:42:48.639Z,14.95
2022-11-30T22:45:14.825Z,16.77
2022-11-30T22:47:41.020Z,16.48
2022-11-30T22:50:07.457Z,16.05
2022-11-30T22:53:01.485Z,14.90
2022-11-30T22:55:19.957Z,14.80
2022-11-30T22:57:46.206Z,14.85
2022-11-30T23:00:12.690Z,15.13
2022-11-30T23:02:38.931Z,15.93
2022-11-30T23:05:05.325Z,14.85
2022-11-30T23:07:32.394Z,14.98
2022-11-30T23:09:58.921Z,14.93
2022-11-30T23:12:51.292Z,16.00
2022-11-30T23:15:11.348Z,14.85
2022-11-30T23:17:37.542Z,15.10
2022-11-30T23:20:03.994Z,14.98
2022-11-30T23:22:30.180Z,14.25
2022-11-30T23:24:56.363Z,14.55
2022-11-30T23:27:22.916Z,15.00
2022-11-30T23:29:49.439Z,14.45
2022-11-30T23:32:16.347Z,14.70
2022-11-30T23:34:44.945Z,14.32
2022-11-30T23:37:14.302Z,15.88
2022-11-30T23:39:40.504Z,14.30
2022-11-30T23:42:06.724Z,14.35
2022-11-30T23:44:32.936Z,14.65
2022-11-30T23:46:59.578Z,13.98
2022-11-30T23:49:25.804Z,13.75
2022-11-30T23:51:52.029Z,13.13
2022-11-30T23:54:18.265Z,14.25
2022-11-30T23:56:44.535Z,13.32
2022-11-30T23:59:10.711Z,12.35
